sensor_id;sensor_type;location;lat;lon;timestamp;P1;durP1;ratioP1;P2;durP2;ratioP2
29848;SDS011;16728;50.832;5.590;2023-02-01T00:06:00;20.38;;;11.80;;
29848;SDS011;16728;50.832;5.590;2023-02-01T01:12:47;21.30;;;10.20;;
29848;SDS011;16728;50.832;5.590;2023-02-01T02:02:19;23.40;;;9.27;;
29848;SDS011;16728;50.832;5.590;2023-02-01T02:05:48;30.75;;;9.55;;
29848;SDS011;16728;50.832;5.590;2023-02-01T02:09:16;22.52;;;9.40;;
29848;SDS011;16728;50.832;5.590;2023-02-01T02:12:29;20.70;;;9.30;;
29848;SDS011;16728;50.832;5.590;2023-02-01T02:37:46;20.80;;;9.63;;
29848;SDS011;16728;50.832;5.590;2023-02-01T02:45:55;24.38;;;8.13;;
29848;SDS011;16728;50.832;5.590;2023-02-01T02:49:49;25.67;;;8.73;;
29848;SDS011;16728;50.832;5.590;2023-02-01T03:14:03;22.85;;;7.22;;
29848;SDS011;16728;50.832;5.590;2023-02-01T03:25:47;20.08;;;6.70;;
29848;SDS011;16728;50.832;5.590;2023-02-01T03:34:06;16.42;;;5.25;;
29848;SDS011;16728;50.832;5.590;2023-02-01T03:42:10;21.33;;;5.25;;
29848;SDS011;16728;50.832;5.590;2023-02-01T04:12:47;14.25;;;3.97;;
29848;SDS011;16728;50.832;5.590;2023-02-01T04:21:21;17.73;;;3.72;;
29848;SDS011;16728;50.832;5.590;2023-02-01T04:28:48;15.40;;;3.92;;
29848;SDS011;16728;50.832;5.590;2023-02-01T05:01:08;20.40;;;3.90;;
29848;SDS011;16728;50.832;5.590;2023-02-01T13:29:31;14.90;;;2.80;;
29848;SDS011;16728;50.832;5.590;2023-02-01T13:46:49;14.85;;;2.83;;
29848;SDS011;16728;50.832;5.590;2023-02-01T13:53:00;11.50;;;2.20;;
29848;SDS011;16728;50.832;5.590;2023-02-01T13:56:18;14.05;;;2.65;;
29848;SDS011;16728;50.832;5.590;2023-02-01T14:15:52;7.28;;;2.17;;
29848;SDS011;16728;50.832;5.590;2023-02-01T14:19:07;8.65;;;2.70;;
29848;SDS011;16728;50.832;5.590;2023-02-01T14:25:19;9.65;;;2.22;;
29848;SDS011;16728;50.832;5.590;2023-02-01T14:28:26;11.85;;;2.45;;
29848;SDS011;16728;50.832;5.590;2023-02-01T14:31:35;10.40;;;2.30;;
29848;SDS011;16728;50.832;5.590;2023-02-01T14:34:54;16.05;;;2.67;;
29848;SDS011;16728;50.832;5.590;2023-02-01T14:38:00;7.22;;;2.10;;
29848;SDS011;16728;50.832;5.590;2023-02-01T14:44:49;11.50;;;2.50;;
29848;SDS011;16728;50.832;5.590;2023-02-01T14:51:08;9.32;;;2.72;;
29848;SDS011;16728;50.832;5.590;2023-02-01T14:54:13;12.35;;;2.30;;
29848;SDS011;16728;50.832;5.590;2023-02-01T14:57:16;8.70;;;2.20;;
29848;SDS011;16728;50.832;5.590;2023-02-01T15:03:50;8.38;;;2.28;;
29848;SDS011;16728;50.832;5.590;2023-02-01T15:07:07;6.13;;;2.00;;
29848;SDS011;16728;50.832;5.590;2023-02-01T15:10:12;13.20;;;2.38;;
29848;SDS011;16728;50.832;5.590;2023-02-01T15:13:18;12.90;;;3.67;;
29848;SDS011;16728;50.832;5.590;2023-02-01T15:16:24;14.55;;;2.80;;
29848;SDS011;16728;50.832;5.590;2023-02-01T15:19:28;17.40;;;3.60;;
29848;SDS011;16728;50.832;5.590;2023-02-01T15:22:32;6.53;;;2.40;;
29848;SDS011;16728;50.832;5.590;2023-02-01T15:25:35;7.27;;;2.40;;
29848;SDS011;16728;50.832;5.590;2023-02-01T15:28:39;10.75;;;2.60;;
29848;SDS011;16728;50.832;5.590;2023-02-01T15:31:45;15.48;;;2.55;;
29848;SDS011;16728;50.832;5.590;2023-02-01T15:34:50;10.30;;;2.28;;
29848;SDS011;16728;50.832;5.590;2023-02-01T15:37:52;7.80;;;2.40;;
29848;SDS011;16728;50.832;5.590;2023-02-01T15:41:18;6.60;;;2.47;;
29848;SDS011;16728;50.832;5.590;2023-02-01T15:44:32;11.35;;;2.67;;
29848;SDS011;16728;50.832;5.590;2023-02-01T15:47:38;10.65;;;2.40;;
29848;SDS011;16728;50.832;5.590;2023-02-01T15:50:43;13.75;;;2.50;;
29848;SDS011;16728;50.832;5.590;2023-02-01T15:54:05;11.63;;;2.72;;
29848;SDS011;16728;50.832;5.590;2023-02-01T15:57:09;10.63;;;2.58;;
29848;SDS011;16728;50.832;5.590;2023-02-01T16:00:34;15.85;;;2.72;;
29848;SDS011;16728;50.832;5.590;2023-02-01T16:07:26;14.50;;;3.33;;
29848;SDS011;16728;50.832;5.590;2023-02-01T16:10:30;12.50;;;2.85;;
29848;SDS011;16728;50.832;5.590;2023-02-01T16:13:39;14.60;;;3.17;;
29848;SDS011;16728;50.832;5.590;2023-02-01T16:16:42;10.05;;;2.25;;
29848;SDS011;16728;50.832;5.590;2023-02-01T16:19:45;6.90;;;2.50;;
29848;SDS011;16728;50.832;5.590;2023-02-01T16:22:47;11.63;;;2.63;;
29848;SDS011;16728;50.832;5.590;2023-02-01T16:25:49;14.32;;;2.78;;
29848;SDS011;16728;50.832;5.590;2023-02-01T16:28:51;15.57;;;3.20;;
29848;SDS011;16728;50.832;5.590;2023-02-01T16:31:53;9.75;;;3.25;;
29848;SDS011;16728;50.832;5.590;2023-02-01T16:34:56;11.02;;;3.50;;
29848;SDS011;16728;50.832;5.590;2023-02-01T16:37:58;7.78;;;2.40;;
29848;SDS011;16728;50.832;5.590;2023-02-01T16:41:00;11.18;;;3.35;;
29848;SDS011;16728;50.832;5.590;2023-02-01T16:44:03;11.68;;;4.00;;
29848;SDS011;16728;50.832;5.590;2023-02-01T16:47:21;13.20;;;4.50;;
29848;SDS011;16728;50.832;5.590;2023-02-01T16:50:25;13.25;;;3.33;;
29848;SDS011;16728;50.832;5.590;2023-02-01T16:53:29;14.27;;;3.13;;
29848;SDS011;16728;50.832;5.590;2023-02-01T16:56:42;45.67;;;19.10;;
29848;SDS011;16728;50.832;5.590;2023-02-01T16:59:46;47.53;;;14.70;;
29848;SDS011;16728;50.832;5.590;2023-02-01T17:02:48;19.87;;;5.40;;
29848;SDS011;16728;50.832;5.590;2023-02-01T17:05:51;17.30;;;4.13;;
29848;SDS011;16728;50.832;5.590;2023-02-01T17:08:59;14.65;;;4.30;;
29848;SDS011;16728;50.832;5.590;2023-02-01T17:12:06;14.82;;;3.95;;
29848;SDS011;16728;50.832;5.590;2023-02-01T17:15:11;10.85;;;4.30;;
29848;SDS011;16728;50.832;5.590;2023-02-01T17:18:14;21.08;;;4.38;;
29848;SDS011;16728;50.832;5.590;2023-02-01T17:21:18;15.02;;;3.83;;
29848;SDS011;16728;50.832;5.590;2023-02-01T17:24:22;17.02;;;3.70;;
29848;SDS011;16728;50.832;5.590;2023-02-01T17:27:39;17.00;;;3.85;;
29848;SDS011;16728;50.832;5.590;2023-02-01T17:30:42;11.90;;;3.08;;
29848;SDS011;16728;50.832;5.590;2023-02-01T17:33:44;16.65;;;3.38;;
29848;SDS011;16728;50.832;5.590;2023-02-01T17:36:46;15.85;;;3.78;;
29848;SDS011;16728;50.832;5.590;2023-02-01T17:39:49;12.13;;;3.30;;
29848;SDS011;16728;50.832;5.590;2023-02-01T17:43:02;13.65;;;3.88;;
29848;SDS011;16728;50.832;5.590;2023-02-01T17:46:10;17.80;;;3.97;;
29848;SDS011;16728;50.832;5.590;2023-02-01T17:49:16;10.68;;;2.90;;
29848;SDS011;16728;50.832;5.590;2023-02-01T17:52:18;16.90;;;3.70;;
29848;SDS011;16728;50.832;5.590;2023-02-01T17:55:21;13.48;;;3.92;;
29848;SDS011;16728;50.832;5.590;2023-02-01T17:58:26;16.58;;;3.55;;
29848;SDS011;16728;50.832;5.590;2023-02-01T18:01:33;16.48;;;3.63;;
29848;SDS011;16728;50.832;5.590;2023-02-01T18:04:35;20.23;;;4.45;;
29848;SDS011;16728;50.832;5.590;2023-02-01T18:07:38;15.60;;;3.92;;
29848;SDS011;16728;50.832;5.590;2023-02-01T18:10:40;11.30;;;2.95;;
29848;SDS011;16728;50.832;5.590;2023-02-01T18:13:46;24.25;;;4.03;;
29848;SDS011;16728;50.832;5.590;2023-02-01T18:16:51;16.02;;;2.92;;
29848;SDS011;16728;50.832;5.590;2023-02-01T18:19:53;16.63;;;3.47;;
29848;SDS011;16728;50.832;5.590;2023-02-01T18:22:55;12.85;;;3.28;;
29848;SDS011;16728;50.832;5.590;2023-02-01T18:25:57;14.77;;;4.13;;
29848;SDS011;16728;50.832;5.590;2023-02-01T18:28:59;18.23;;;3.72;;
29848;SDS011;16728;50.832;5.590;2023-02-01T18:32:01;15.40;;;5.10;;
29848;SDS011;16728;50.832;5.590;2023-02-01T18:35:26;14.93;;;3.25;;
29848;SDS011;16728;50.832;5.590;2023-02-01T18:38:32;13.75;;;3.13;;
29848;SDS011;16728;50.832;5.590;2023-02-01T18:41:34;10.73;;;3.55;;
29848;SDS011;16728;50.832;5.590;2023-02-01T18:44:38;15.38;;;3.58;;
29848;SDS011;16728;50.832;5.590;2023-02-01T18:47:41;17.85;;;3.28;;
29848;SDS011;16728;50.832;5.590;2023-02-01T18:50:44;10.90;;;3.10;;
29848;SDS011;16728;50.832;5.590;2023-02-01T18:53:49;20.90;;;4.03;;
29848;SDS011;16728;50.832;5.590;2023-02-01T18:56:52;14.60;;;2.70;;
29848;SDS011;16728;50.832;5.590;2023-02-01T18:59:54;15.38;;;3.42;;
29848;SDS011;16728;50.832;5.590;2023-02-01T19:02:59;14.02;;;3.45;;
29848;SDS011;16728;50.832;5.590;2023-02-01T19:06:04;16.85;;;3.70;;
29848;SDS011;16728;50.832;5.590;2023-02-01T19:09:08;18.55;;;2.85;;
29848;SDS011;16728;50.832;5.590;2023-02-01T19:12:10;10.93;;;2.92;;
29848;SDS011;16728;50.832;5.590;2023-02-01T19:15:12;20.33;;;3.65;;
29848;SDS011;16728;50.832;5.590;2023-02-01T19:18:16;16.63;;;3.03;;
29848;SDS011;16728;50.832;5.590;2023-02-01T19:21:32;11.65;;;3.67;;
29848;SDS011;16728;50.832;5.590;2023-02-01T19:24:38;19.37;;;3.70;;
29848;SDS011;16728;50.832;5.590;2023-02-01T19:27:58;14.77;;;3.80;;
29848;SDS011;16728;50.832;5.590;2023-02-01T19:31:55;19.35;;;3.55;;
29848;SDS011;16728;50.832;5.590;2023-02-01T19:36:12;13.32;;;3.20;;
29848;SDS011;16728;50.832;5.590;2023-02-01T19:44:37;17.30;;;3.50;;
29848;SDS011;16728;50.832;5.590;2023-02-01T19:57:27;18.52;;;4.28;;
29848;SDS011;16728;50.832;5.590;2023-02-01T20:43:51;26.60;;;5.85;;
29848;SDS011;16728;50.832;5.590;2023-02-01T20:47:03;16.70;;;4.53;;
29848;SDS011;16728;50.832;5.590;2023-02-01T20:54:09;16.77;;;4.20;;
29848;SDS011;16728;50.832;5.590;2023-02-01T22:03:03;26.05;;;4.30;;
29848;SDS011;16728;50.832;5.590;2023-02-01T22:10:36;20.85;;;4.63;;
29848;SDS011;16728;50.832;5.590;2023-02-01T22:22:15;19.05;;;4.32;;
29848;SDS011;16728;50.832;5.590;2023-02-01T22:39:10;19.92;;;4.30;;
29848;SDS011;16728;50.832;5.590;2023-02-01T22:42:57;20.35;;;4.60;;
29848;SDS011;16728;50.832;5.590;2023-02-01T22:51:00;21.67;;;4.37;;
29848;SDS011;16728;50.832;5.590;2023-02-01T23:16:14;21.48;;;3.95;;
29848;SDS011;16728;50.832;5.590;2023-02-01T23:47:45;20.48;;;5.43;;
29848;SDS011;16728;50.832;5.590;2023-02-01T23:52:01;18.15;;;4.88;;
29848;SDS011;16728;50.832;5.590;2023-02-01T23:56:33;16.30;;;4.68;;
